Time;durP1;ratioP1;P1;durP2;ratioP2;P2;SDS_P1;SDS_P2;PMS_P1;PMS_P2;Temp;Humidity;BMP_temperature;BMP_pressure;BME280_temperature;BME280_humidity;BME280_pressure;Samples;Min_cycle;Max_cycle;Signal;HPM_P1;HPM_P2
2023/03/18 02:07:26;;;;;;;16.42;11.50;;;4.90;99.90;;;;;;6232702;22;20798;-79
2023/03/18 02:09:55;;;;;;;15.00;10.98;;;4.90;99.90;;;;;;6240903;23;20450;-79
2023/03/18 02:12:29;;;;;;;15.57;12.55;;;4.80;99.90;;;;;;6240160;22;20369;-79
2023/03/18 02:14:56;;;;;;;15.90;12.73;;;4.80;99.90;;;;;;6241365;23;20377;-79
2023/03/18 02:17:26;;;;;;;15.60;12.00;;;4.80;99.90;;;;;;6239983;22;20888;-79
2023/03/18 02:20:12;;;;;;;17.40;12.65;;;4.80;99.90;;;;;;6241222;23;20440;-79
2023/03/18 02:22:57;;;;;;;17.63;12.98;;;4.80;99.90;;;;;;6239727;22;20389;-79
2023/03/18 02:25:27;;;;;;;15.60;12.02;;;4.80;99.90;;;;;;6240234;22;20368;-79
2023/03/18 02:27:59;;;;;;;15.07;12.00;;;4.80;99.90;;;;;;6241019;23;20453;-79
2023/03/18 02:30:36;;;;;;;16.17;11.80;;;4.80;99.90;;;;;;6240388;22;20896;-79
2023/03/18 02:33:05;;;;;;;16.20;12.63;;;4.80;99.90;;;;;;6240998;23;20400;-79
2023/03/18 02:35:33;;;;;;;18.75;12.60;;;4.80;99.90;;;;;;6239576;22;20384;-79
2023/03/18 02:38:00;;;;;;;16.70;12.75;;;4.70;99.90;;;;;;6241195;23;20730;-79
2023/03/18 02:40:29;;;;;;;22.17;14.90;;;4.70;99.90;;;;;;6239606;22;20429;-79
2023/03/18 02:43:13;;;;;;;18.98;13.60;;;4.80;99.90;;;;;;6240759;23;20464;-79
2023/03/18 02:46:13;;;;;;;16.33;12.95;;;4.70;99.90;;;;;;6239159;22;20440;-78
2023/03/18 02:48:42;;;;;;;16.70;13.00;;;4.70;99.90;;;;;;6239790;22;20380;-79
2023/03/18 02:51:10;;;;;;;15.93;11.70;;;4.70;99.90;;;;;;6240970;22;20459;-79
2023/03/18 02:53:38;;;;;;;14.75;11.50;;;4.70;99.90;;;;;;6241251;22;20399;-79
2023/03/18 02:56:05;;;;;;;15.77;11.57;;;4.70;99.90;;;;;;6240751;23;20478;-79
2023/03/18 02:58:33;;;;;;;15.40;11.13;;;4.60;99.90;;;;;;6241422;22;20373;-79
2023/03/18 03:01:00;;;;;;;15.43;11.45;;;4.60;99.90;;;;;;6240877;23;20460;-79
2023/03/18 03:03:28;;;;;;;15.88;12.27;;;4.60;99.90;;;;;;6239714;22;20768;-79
2023/03/18 03:05:55;;;;;;;15.98;12.27;;;4.60;99.90;;;;;;6240977;23;20377;-79
2023/03/18 03:08:22;;;;;;;14.10;11.10;;;4.50;99.90;;;;;;6239616;22;20418;-79
2023/03/18 03:10:51;;;;;;;16.92;11.60;;;4.50;99.90;;;;;;6241384;23;20372;-82
2023/03/18 03:13:19;;;;;;;15.33;11.63;;;4.50;99.90;;;;;;6242715;22;20375;-82
2023/03/18 03:15:47;;;;;;;15.00;10.82;;;4.50;99.90;;;;;;6240607;22;20675;-82
2023/03/18 03:18:15;;;;;;;15.45;11.82;;;4.50;99.90;;;;;;6241412;23;20375;-81
2023/03/18 03:20:43;;;;;;;15.57;11.52;;;4.50;99.90;;;;;;6240358;22;20698;-82
2023/03/18 03:23:13;;;;;;;13.53;10.97;;;4.50;99.90;;;;;;6242760;22;20369;-83
2023/03/18 03:25:40;;;;;;;14.50;11.55;;;4.50;99.90;;;;;;6241859;22;20781;-82
2023/03/18 03:28:07;;;;;;;16.30;12.38;;;4.50;99.90;;;;;;6241330;23;20404;-81
2023/03/18 03:30:35;;;;;;;14.13;10.88;;;4.50;99.90;;;;;;6240041;22;20756;-82
2023/03/18 03:33:02;;;;;;;14.63;11.23;;;4.40;99.90;;;;;;6241293;23;20694;-82
2023/03/18 03:35:30;;;;;;;16.65;11.70;;;4.40;99.90;;;;;;6239817;22;20368;-81
2023/03/18 03:37:57;;;;;;;14.00;10.63;;;4.30;99.90;;;;;;6240615;23;20364;-82
2023/03/18 03:40:24;;;;;;;13.80;10.45;;;4.20;99.90;;;;;;6239963;22;20405;-81
2023/03/18 03:42:52;;;;;;;14.60;10.57;;;4.10;99.90;;;;;;6241255;23;20436;-82
2023/03/18 03:45:19;;;;;;;14.80;10.35;;;4.10;99.90;;;;;;6242221;22;20438;-82
2023/03/18 03:47:46;;;;;;;13.93;10.10;;;4.10;99.90;;;;;;6240268;22;20687;-82
2023/03/18 03:50:14;;;;;;;14.77;10.65;;;4.10;99.90;;;;;;6241033;23;20372;-82
2023/03/18 03:52:42;;;;;;;12.88;10.48;;;4.10;99.90;;;;;;6240460;22;20414;-82
2023/03/18 03:55:12;;;;;;;13.63;10.95;;;4.00;99.90;;;;;;6241281;23;20373;-82
2023/03/18 03:57:40;;;;;;;14.43;10.38;;;4.10;99.90;;;;;;6241714;22;20376;-82
2023/03/18 04:00:12;;;;;;;12.68;10.50;;;4.00;99.90;;;;;;6240392;23;20684;-82
2023/03/18 04:02:42;;;;;;;13.93;11.07;;;4.00;99.90;;;;;;6238735;22;20537;-82
2023/03/18 04:05:10;;;;;;;14.30;11.15;;;4.00;99.90;;;;;;6240794;23;20373;-82
2023/03/18 04:07:38;;;;;;;14.77;10.90;;;4.00;99.90;;;;;;6241911;22;20419;-81
2023/03/18 04:10:08;;;;;;;15.70;11.90;;;4.00;99.90;;;;;;6241053;23;20425;-81
2023/03/18 04:12:36;;;;;;;17.75;11.95;;;4.00;99.90;;;;;;6239798;22;20377;-81
2023/03/18 04:15:04;;;;;;;15.85;12.05;;;4.00;99.90;;;;;;6240883;23;20452;-82
2023/03/18 04:17:31;;;;;;;16.23;11.43;;;4.00;99.90;;;;;;6239836;22;20750;-81
2023/03/18 04:19:58;;;;;;;14.35;11.00;;;3.90;99.90;;;;;;6242713;22;20361;-82
2023/03/18 04:22:25;;;;;;;16.07;11.10;;;3.90;99.90;;;;;;6240959;23;20452;-81
2023/03/18 04:24:52;;;;;;;13.88;11.10;;;3.80;99.90;;;;;;6241400;22;20838;-82
2023/03/18 04:27:19;;;;;;;14.53;11.33;;;3.70;99.90;;;;;;6240335;23;20457;-82
2023/03/18 04:29:46;;;;;;;15.30;11.38;;;3.70;99.90;;;;;;6240302;22;20427;-81
2023/03/18 04:32:13;;;;;;;15.50;10.95;;;3.70;99.90;;;;;;6240812;23;20368;-82
2023/03/18 04:34:40;;;;;;;15.50;10.88;;;3.60;99.90;;;;;;6241343;22;20384;-82
2023/03/18 04:37:07;;;;;;;15.95;11.55;;;3.60;99.90;;;;;;6240562;23;20445;-82
2023/03/18 04:39:34;;;;;;;16.17;12.07;;;3.60;99.90;;;;;;6239748;22;20435;-82
2023/03/18 04:42:01;;;;;;;14.70;11.07;;;3.60;99.90;;;;;;6240696;23;20404;-82
2023/03/18 04:44:28;;;;;;;15.50;11.27;;;3.50;99.90;;;;;;6242472;22;20699;-82
2023/03/18 04:46:55;;;;;;;14.88;10.80;;;3.50;99.90;;;;;;6239804;22;20385;-82
2023/03/18 04:49:23;;;;;;;15.35;10.70;;;3.70;99.90;;;;;;6242441;23;20369;-82
2023/03/18 04:51:50;;;;;;;15.73;10.13;;;3.90;99.90;;;;;;6241354;22;20706;-82
2023/03/18 04:54:17;;;;;;;15.00;9.73;;;4.20;99.90;;;;;;6242361;23;20476;-82
2023/03/18 04:56:44;;;;;;;13.30;9.60;;;4.40;99.90;;;;;;6242935;22;20381;-82
2023/03/18 04:59:10;;;;;;;12.18;8.98;;;4.50;99.90;;;;;;6244293;22;20369;-82
2023/03/18 05:01:37;;;;;;;14.45;10.80;;;4.60;99.90;;;;;;6242753;22;20739;-82
2023/03/18 05:04:05;;;;;;;13.45;10.02;;;4.50;99.90;;;;;;6242868;23;20365;-82
2023/03/18 05:06:32;;;;;;;13.85;9.23;;;4.40;99.90;;;;;;6241158;22;20441;-80
2023/03/18 05:09:00;;;;;;;13.13;9.40;;;4.40;99.90;;;;;;6242647;23;20457;-81
2023/03/18 05:11:27;;;;;;;12.27;9.55;;;4.30;99.90;;;;;;6242175;23;20750;-82
2023/03/18 05:13:54;;;;;;;13.38;9.43;;;4.20;99.90;;;;;;6241951;22;20388;-81
2023/03/18 05:16:22;;;;;;;14.77;10.85;;;4.10;99.90;;;;;;6243561;22;20438;-82
2023/03/18 05:18:49;;;;;;;13.25;10.20;;;4.00;99.90;;;;;;6241666;22;20675;-82
2023/03/18 05:21:16;;;;;;;15.90;11.15;;;3.90;99.90;;;;;;6242361;23;20428;-82
2023/03/18 05:23:43;;;;;;;12.77;9.95;;;3.80;99.90;;;;;;6241213;22;20756;-82
2023/03/18 05:26:11;;;;;;;16.40;11.57;;;3.80;99.90;;;;;;6240907;23;20429;-82
2023/03/18 05:28:38;;;;;;;14.98;10.90;;;3.70;99.90;;;;;;6241490;22;20471;-82
2023/03/18 05:31:06;;;;;;;15.17;11.93;;;3.60;99.90;;;;;;6242148;23;20496;-81
2023/03/18 05:33:33;;;;;;;14.77;11.98;;;3.50;99.90;;;;;;6242579;23;20373;-81
2023/03/18 05:36:00;;;;;;;15.38;12.38;;;3.40;99.90;;;;;;6239386;22;20392;-82
2023/03/18 05:38:27;;;;;;;16.73;12.00;;;3.40;99.90;;;;;;6242391;23;20423;-81
2023/03/18 05:40:54;;;;;;;16.48;12.80;;;3.30;99.90;;;;;;6242553;22;20388;-82
2023/03/18 05:43:22;;;;;;;15.95;12.82;;;3.20;99.90;;;;;;6242049;23;20361;-82
2023/03/18 05:45:50;;;;;;;16.20;12.13;;;3.20;99.90;;;;;;6241310;22;20476;-82
2023/03/18 05:48:16;;;;;;;17.03;12.23;;;3.20;99.90;;;;;;6242070;23;20376;-81
2023/03/18 05:50:44;;;;;;;15.73;12.77;;;3.20;99.90;;;;;;6240964;22;20357;-82
2023/03/18 05:53:12;;;;;;;16.37;12.70;;;3.20;99.90;;;;;;6242048;23;20377;-82
2023/03/18 05:55:39;;;;;;;15.90;11.57;;;3.10;99.90;;;;;;6241285;22;20373;-82
2023/03/18 05:58:06;;;;;;;14.57;10.88;;;3.10;99.90;;;;;;6241852;23;20373;-81
2023/03/18 06:00:34;;;;;;;13.88;10.35;;;3.10;99.90;;;;;;6243057;22;20476;-81
2023/03/18 06:03:00;;;;;;;14.90;9.77;;;3.10;99.90;;;;;;6240770;22;20433;-82
2023/03/18 06:05:28;;;;;;;11.77;9.10;;;3.10;99.90;;;;;;6242075;23;20375;-81
2023/03/18 06:07:56;;;;;;;15.38;10.13;;;3.10;99.90;;;;;;6242293;22;20403;-81
2023/03/18 06:10:24;;;;;;;15.40;11.10;;;3.10;99.90;;;;;;6242323;23;20775;-84
2023/03/18 06:12:51;;;;;;;15.13;10.38;;;3.10;99.90;;;;;;6241093;22;20457;-82
2023/03/18 06:15:20;;;;;;;15.83;10.47;;;3.00;99.90;;;;;;6241829;23;20389;-82
2023/03/18 06:17:47;;;;;;;13.30;9.80;;;3.10;99.90;;;;;;6240524;22;20381;-82
2023/03/18 06:20:14;;;;;;;16.73;11.75;;;3.10;99.90;;;;;;6242099;23;20380;-81
2023/03/18 06:22:47;;;;;;;15.63;10.95;;;3.10;99.90;;;;;;6241046;22;20434;-82
2023/03/18 06:25:19;;;;;;;14.15;10.93;;;3.10;99.90;;;;;;6243642;22;20373;-81
2023/03/18 06:27:46;;;;;;;14.65;11.30;;;3.20;99.90;;;;;;6240423;22;20438;-82
2023/03/18 06:30:15;;;;;;;15.20;11.63;;;3.20;99.90;;;;;;6242013;23;20684;-82
2023/03/18 06:32:42;;;;;;;13.77;10.52;;;3.30;99.90;;;;;;6240553;22;20399;-81
2023/03/18 06:35:10;;;;;;;16.13;11.70;;;3.30;99.90;;;;;;6241519;23;20373;-81
2023/03/18 06:37:38;;;;;;;16.48;12.27;;;3.40;99.90;;;;;;6241512;23;20451;-82
2023/03/18 06:40:07;;;;;;;15.23;12.15;;;3.40;99.90;;;;;;6241295;23;20419;-82
2023/03/18 06:42:34;;;;;;;14.95;10.85;;;3.50;99.90;;;;;;6241501;23;20373;-82
2023/03/18 06:45:02;;;;;;;14.68;11.23;;;3.50;99.90;;;;;;6240088;22;20444;-81
2023/03/18 06:47:29;;;;;;;12.57;10.10;;;3.50;99.90;;;;;;6243340;22;20472;-81
2023/03/18 06:49:57;;;;;;;14.13;10.98;;;3.50;99.90;;;;;;6215200;22;20427;-81
2023/03/18 06:52:24;;;;;;;15.75;11.63;;;3.60;99.90;;;;;;6241608;23;20365;-82
2023/03/18 06:54:51;;;;;;;15.82;11.45;;;3.60;99.90;;;;;;6242080;22;20364;-81
2023/03/18 06:57:19;;;;;;;18.10;12.48;;;3.70;99.90;;;;;;6243097;22;20373;-82
2023/03/18 06:59:46;;;;;;;15.68;11.30;;;3.80;99.90;;;;;;6240409;22;20373;-81
2023/03/18 07:02:14;;;;;;;14.90;12.48;;;3.80;99.90;;;;;;6241067;23;20379;-82
2023/03/18 07:04:41;;;;;;;15.50;11.77;;;4.00;99.90;;;;;;6242423;22;20377;-83
2023/03/18 07:07:08;;;;;;;20.02;13.68;;;4.10;99.90;;;;;;6240884;22;20375;-82
2023/03/18 07:09:35;;;;;;;23.92;14.07;;;4.20;99.90;;;;;;6241119;23;20855;-81
2023/03/18 07:12:03;;;;;;;18.92;13.50;;;4.30;99.90;;;;;;6240059;22;20364;-82
2023/03/18 07:14:30;;;;;;;15.48;11.52;;;4.50;99.90;;;;;;6241680;23;20427;-82
2023/03/18 07:16:57;;;;;;;18.25;13.82;;;4.60;99.90;;;;;;6241071;22;20373;-82
2023/03/18 07:19:24;;;;;;;16.25;12.55;;;4.80;99.90;;;;;;6216177;23;20418;-82
2023/03/18 07:21:51;;;;;;;17.63;13.30;;;4.90;99.90;;;;;;6240635;22;20396;-82
2023/03/18 07:24:20;;;;;;;19.27;14.70;;;5.10;99.90;;;;;;6241048;23;20375;-82
2023/03/18 07:26:49;;;;;;;17.58;13.07;;;5.30;99.90;;;;;;6240276;22;20376;-82
2023/03/18 07:29:16;;;;;;;21.33;15.15;;;5.50;99.90;;;;;;6242002;22;20379;-82
2023/03/18 07:31:43;;;;;;;20.20;16.55;;;5.70;99.90;;;;;;6240360;23;20447;-82
2023/03/18 07:34:11;;;;;;;22.38;18.83;;;5.90;99.90;;;;;;6239142;22;20396;-82
2023/03/18 07:36:38;;;;;;;18.50;14.82;;;6.20;99.90;;;;;;6240008;23;20416;-82
2023/03/18 07:39:06;;;;;;;16.52;13.13;;;6.40;99.90;;;;;;6239008;22;20373;-83
2023/03/18 07:41:33;;;;;;;16.15;12.40;;;6.60;99.90;;;;;;6241440;22;20391;-81
2023/03/18 07:44:04;;;;;;;13.98;10.75;;;6.90;99.90;;;;;;6239497;22;20372;-82
2023/03/18 07:46:31;;;;;;;16.67;12.65;;;7.10;99.90;;;;;;6239532;23;20403;-82
2023/03/18 07:48:58;;;;;;;14.97;11.53;;;7.30;99.30;;;;;;6239353;22;20373;-82
2023/03/18 07:51:25;;;;;;;15.50;11.73;;;7.60;99.50;;;;;;6240538;23;20463;-82
2023/03/18 07:53:52;;;;;;;14.93;11.25;;;7.80;99.00;;;;;;6240615;22;20384;-81
2023/03/18 07:56:19;;;;;;;13.93;10.95;;;8.00;98.00;;;;;;6240434;23;20427;-83
2023/03/18 07:58:46;;;;;;;15.27;10.63;;;8.20;95.70;;;;;;6241386;23;20748;-82
2023/03/18 08:01:17;;;;;;;15.50;11.02;;;8.50;94.10;;;;;;6240301;22;20379;-84
2023/03/18 08:03:45;;;;;;;16.27;10.77;;;8.60;92.60;;;;;;6241256;23;20719;-83
2023/03/18 08:06:14;;;;;;;14.55;10.35;;;8.90;91.10;;;;;;6239787;22;20377;-81
2023/03/18 08:08:41;;;;;;;13.88;10.20;;;9.00;84.10;;;;;;6216186;23;20372;-82
2023/03/18 08:11:09;;;;;;;13.98;10.43;;;9.20;85.70;;;;;;6240292;22;20373;-82
2023/03/18 08:13:37;;;;;;;13.57;10.27;;;9.40;82.10;;;;;;6240570;23;20373;-82
2023/03/18 08:16:05;;;;;;;13.35;10.23;;;9.60;79.10;;;;;;6239113;22;20384;-83
2023/03/18 08:18:32;;;;;;;14.60;10.57;;;9.80;77.30;;;;;;6239970;23;20384;-83
2023/03/18 08:20:59;;;;;;;13.55;9.80;;;10.00;74.30;;;;;;6239312;22;20381;-82
2023/03/18 08:23:26;;;;;;;15.18;10.50;;;10.20;73.40;;;;;;6241979;23;20373;-83
2023/03/18 08:25:53;;;;;;;14.63;10.48;;;10.40;70.50;;;;;;6241843;22;20690;-82
2023/03/18 08:28:20;;;;;;;13.48;9.77;;;10.50;71.40;;;;;;6243221;23;20423;-82
2023/03/18 08:30:47;;;;;;;14.55;9.75;;;10.70;69.10;;;;;;6242841;23;20434;-83
2023/03/18 08:33:14;;;;;;;15.05;10.30;;;10.80;67.20;;;;;;6242386;22;20375;-82
2023/03/18 08:35:41;;;;;;;13.25;9.50;;;11.00;67.20;;;;;;6217562;23;20431;-82
2023/03/18 08:38:08;;;;;;;13.10;9.73;;;11.10;66.40;;;;;;6242061;22;20385;-82
2023/03/18 08:40:35;;;;;;;12.80;8.90;;;11.30;64.60;;;;;;6242904;23;20369;-82
2023/03/18 08:43:02;;;;;;;12.27;9.02;;;11.50;64.80;;;;;;6241956;22;20429;-84
2023/03/18 08:45:29;;;;;;;11.15;8.38;;;11.70;64.20;;;;;;6244042;22;20376;-86
2023/03/18 08:47:57;;;;;;;12.63;8.98;;;11.80;61.80;;;;;;6242261;22;20369;-84
2023/03/18 08:50:27;;;;;;;16.37;11.70;;;12.10;60.60;;;;;;6242944;23;20736;-85
2023/03/18 08:52:59;;;;;;;15.48;10.52;;;12.20;55.40;;;;;;6242460;22;20372;-83
2023/03/18 08:55:33;;;;;;;16.55;10.98;;;12.40;54.90;;;;;;6242307;23;20845;-84
2023/03/18 08:58:03;;;;;;;15.60;10.65;;;12.40;53.60;;;;;;6240371;22;20373;-83
2023/03/18 09:00:30;;;;;;;16.95;11.15;;;12.50;54.40;;;;;;6240610;23;20376;-83
2023/03/18 09:02:56;;;;;;;13.68;10.35;;;12.60;54.20;;;;;;6242818;22;20427;-84
2023/03/18 09:05:24;;;;;;;17.52;13.25;;;12.70;53.70;;;;;;6242558;23;20432;-84
2023/03/18 09:07:52;;;;;;;21.77;13.95;;;12.80;54.00;;;;;;6242705;23;20369;-85
2023/03/18 09:10:19;;;;;;;20.20;14.23;;;12.90;51.70;;;;;;6243683;22;20369;-84
2023/03/18 09:12:46;;;;;;;19.15;13.80;;;12.90;51.30;;;;;;6242688;23;20392;-84
2023/03/18 09:15:13;;;;;;;18.75;14.07;;;13.10;51.20;;;;;;6241785;22;20423;-84
2023/03/18 09:17:41;;;;;;;20.58;14.75;;;13.10;50.50;;;;;;6242474;23;20472;-84
2023/03/18 09:20:28;;;;;;;19.65;14.43;;;13.20;50.00;;;;;;6242500;22;20819;-84
2023/03/18 09:22:55;;;;;;;21.33;14.50;;;13.30;49.80;;;;;;6242445;23;20373;-84
2023/03/18 09:25:23;;;;;;;19.65;13.73;;;13.30;48.00;;;;;;6241873;22;20373;-84
2023/03/18 09:27:50;;;;;;;23.10;16.00;;;13.40;49.50;;;;;;6242590;23;20688;-85
2023/03/18 09:30:18;;;;;;;20.27;15.02;;;13.40;48.00;;;;;;6241773;22;20395;-85
2023/03/18 09:32:44;;;;;;;19.30;14.57;;;13.50;50.10;;;;;;6242244;23;20714;-84
2023/03/18 09:35:13;;;;;;;20.63;14.55;;;13.60;49.40;;;;;;6242248;22;20419;-85
2023/03/18 09:37:40;;;;;;;21.53;14.50;;;13.70;48.90;;;;;;6241957;23;20369;-84
2023/03/18 09:40:10;;;;;;;19.13;14.82;;;13.70;49.90;;;;;;6243403;22;20740;-85
2023/03/18 09:42:51;;;;;;;20.60;15.43;;;13.90;49.10;;;;;;6244062;22;20726;-85
2023/03/18 09:45:48;;;;;;;18.42;13.38;;;14.00;48.80;;;;;;6241318;22;20733;-85
2023/03/18 09:48:30;;;;;;;22.70;15.63;;;14.10;49.40;;;;;;6242034;22;20384;-85
2023/03/18 09:51:21;;;;;;;27.30;18.55;;;14.30;49.00;;;;;;6242713;23;20373;-85
2023/03/18 09:53:55;;;;;;;24.48;17.45;;;14.40;48.40;;;;;;6241535;23;20686;-84
2023/03/18 09:56:29;;;;;;;21.73;15.75;;;14.40;48.10;;;;;;6242230;23;20414;-84
2023/03/18 09:59:04;;;;;;;23.88;17.15;;;14.40;47.20;;;;;;6241472;22;20372;-84
2023/03/18 10:01:35;;;;;;;24.53;17.90;;;14.40;45.80;;;;;;6241432;22;20436;-81
2023/03/18 10:04:14;;;;;;;24.77;17.63;;;14.30;47.30;;;;;;6242531;23;20396;-85
2023/03/18 10:06:44;;;;;;;24.55;18.08;;;14.50;46.00;;;;;;6241046;22;20881;-77
2023/03/18 10:09:25;;;;;;;27.92;19.15;;;14.60;45.30;;;;;;6242241;22;20369;-77
2023/03/18 10:12:29;;;;;;;24.05;17.85;;;14.60;44.20;;;;;;6240466;22;20718;-77
2023/03/18 10:15:37;;;;;;;24.27;18.42;;;14.60;45.60;;;;;;6176813;22;20742;-78
2023/03/18 10:18:16;;;;;;;24.42;18.02;;;14.80;45.80;;;;;;6239539;22;20365;-77
2023/03/18 10:21:05;;;;;;;24.40;17.55;;;15.00;45.40;;;;;;6239633;22;20401;-77
2023/03/18 10:23:52;;;;;;;27.25;19.38;;;15.10;44.50;;;;;;6242542;22;20692;-77
2023/03/18 10:26:19;;;;;;;26.02;18.25;;;15.20;43.80;;;;;;6239918;23;20392;-78
2023/03/18 10:29:12;;;;;;;26.73;19.83;;;15.20;43.50;;;;;;6239985;23;20423;-77
2023/03/18 10:31:51;;;;;;;27.60;19.75;;;15.20;42.70;;;;;;6239817;23;20361;-77
2023/03/18 10:34:21;;;;;;;25.65;18.80;;;15.00;43.60;;;;;;6239242;22;20369;-77
2023/03/18 10:37:04;;;;;;;27.75;19.70;;;15.10;44.60;;;;;;6241249;23;20411;-77
2023/03/18 10:39:34;;;;;;;27.30;19.33;;;15.20;43.80;;;;;;6240025;22;20750;-77
2023/03/18 10:42:25;;;;;;;26.17;18.88;;;15.30;44.20;;;;;;6240520;23;20700;-77
2023/03/18 10:44:59;;;;;;;25.08;18.80;;;15.10;44.20;;;;;;6240044;23;20419;-77
2023/03/18 10:47:29;;;;;;;26.73;19.40;;;15.10;44.80;;;;;;6242174;22;20370;-77
2023/03/18 10:50:32;;;;;;;27.83;20.63;;;15.10;43.90;;;;;;6239774;22;20699;-77
2023/03/18 10:53:12;;;;;;;26.65;19.38;;;15.10;44.30;;;;;;6233267;22;20373;-77
2023/03/18 10:56:03;;;;;;;34.13;24.85;;;15.20;45.00;;;;;;6239678;22;20373;-77
2023/03/18 10:58:31;;;;;;;25.77;19.40;;;15.40;45.10;;;;;;6239797;23;20754;-77
2023/03/18 11:00:58;;;;;;;25.15;19.13;;;15.60;45.40;;;;;;6239892;22;20388;-77
2023/03/18 11:03:32;;;;;;;24.65;18.92;;;15.70;43.50;;;;;;6241768;22;20376;-78
2023/03/18 11:06:02;;;;;;;25.98;19.50;;;15.90;43.30;;;;;;6241523;22;20395;-77
2023/03/18 11:08:34;;;;;;;25.10;18.73;;;15.80;42.40;;;;;;6239932;23;20438;-77
2023/03/18 11:11:24;;;;;;;25.70;18.93;;;15.80;43.30;;;;;;6240839;22;20364;-77
2023/03/18 11:13:54;;;;;;;28.92;20.65;;;15.90;43.50;;;;;;6239454;22;20427;-77
2023/03/18 11:16:29;;;;;;;23.00;17.38;;;15.90;41.60;;;;;;6240126;23;20368;-77
2023/03/18 11:18:57;;;;;;;27.17;19.50;;;16.00;43.60;;;;;;6239328;22;20373;-77
2023/03/18 11:21:27;;;;;;;25.80;19.42;;;16.20;43.20;;;;;;6240384;23;20380;-77
2023/03/18 11:24:23;;;;;;;24.60;18.73;;;16.30;42.10;;;;;;6238896;22;20373;-77
2023/03/18 11:26:55;;;;;;;24.15;18.67;;;16.40;42.70;;;;;;6239781;22;20708;-78
2023/03/18 11:29:27;;;;;;;25.27;18.83;;;16.70;41.70;;;;;;6240210;23;20683;-77
2023/03/18 11:31:59;;;;;;;25.95;19.55;;;16.70;40.80;;;;;;6241355;22;20380;-77
2023/03/18 11:34:29;;;;;;;28.55;20.75;;;16.80;40.80;;;;;;6239195;23;20373;-77
2023/03/18 11:37:00;;;;;;;25.52;18.80;;;16.70;39.70;;;;;;6239316;22;20826;-78
2023/03/18 11:39:36;;;;;;;26.30;18.98;;;16.60;41.10;;;;;;6240074;23;20834;-77
2023/03/18 11:42:20;;;;;;;22.80;17.50;;;16.60;41.70;;;;;;6238993;22;20444;-77
2023/03/18 11:44:54;;;;;;;24.90;19.15;;;16.60;40.70;;;;;;6238372;22;20389;-77
2023/03/18 11:47:23;;;;;;;22.73;17.20;;;16.50;41.60;;;;;;6238870;23;20754;-78
2023/03/18 11:49:49;;;;;;;25.98;19.90;;;16.50;40.80;;;;;;6240046;22;20381;-77
2023/03/18 11:52:50;;;;;;;29.55;21.73;;;16.60;40.30;;;;;;6238483;23;20435;-77
2023/03/18 11:55:24;;;;;;;26.20;19.75;;;16.40;41.40;;;;;;6239483;22;20900;-77
2023/03/18 11:57:54;;;;;;;24.85;18.63;;;16.20;40.00;;;;;;6239273;23;20794;-78
2023/03/18 12:00:51;;;;;;;34.00;20.35;;;16.00;40.90;;;;;;6239095;23;20369;-78
2023/03/18 12:03:34;;;;;;;27.60;19.85;;;16.00;42.00;;;;;;6238948;22;20446;-77
2023/03/18 12:06:18;;;;;;;25.98;18.90;;;16.00;40.50;;;;;;6239069;22;20393;-78
2023/03/18 12:08:49;;;;;;;27.23;20.02;;;16.10;41.00;;;;;;6239881;23;20703;-78
2023/03/18 12:11:38;;;;;;;22.42;17.00;;;16.30;41.40;;;;;;6240533;22;20369;-78
2023/03/18 12:14:16;;;;;;;25.42;19.55;;;16.50;40.90;;;;;;6240059;22;20369;-77
2023/03/18 12:17:10;;;;;;;25.58;19.65;;;16.70;41.40;;;;;;6239851;23;20896;-78
2023/03/18 12:20:20;;;;;;;28.53;20.27;;;17.00;41.20;;;;;;6240854;22;20373;-78
2023/03/18 12:22:59;;;;;;;23.90;18.35;;;17.30;40.80;;;;;;6222553;22;20435;-78
2023/03/18 12:25:47;;;;;;;27.40;18.83;;;17.50;39.60;;;;;;6240825;22;20392;-79
2023/03/18 12:28:44;;;;;;;26.65;19.77;;;17.70;39.30;;;;;;6239896;23;20376;-78
2023/03/18 12:31:45;;;;;;;28.67;21.47;;;17.80;39.30;;;;;;6239090;23;20695;-78
2023/03/18 12:34:49;;;;;;;25.45;19.35;;;17.60;37.00;;;;;;6239615;22;20357;-78
2023/03/18 12:37:45;;;;;;;25.42;19.08;;;17.80;39.50;;;;;;6239358;23;20392;-79
2023/03/18 12:40:18;;;;;;;27.42;20.33;;;17.90;38.30;;;;;;6232248;22;20585;-78
2023/03/18 12:43:03;;;;;;;86.75;39.88;;;18.00;37.00;;;;;;6239848;23;20361;-80
2023/03/18 12:45:38;;;;;;;37.40;22.10;;;18.00;38.00;;;;;;6239048;22;20365;-79
2023/03/18 12:48:19;;;;;;;24.77;18.73;;;18.20;37.90;;;;;;6239818;23;20373;-80
2023/03/18 12:51:13;;;;;;;34.60;25.48;;;18.50;38.10;;;;;;6237800;22;20365;-81
2023/03/18 12:53:47;;;;;;;29.97;21.27;;;18.60;35.80;;;;;;6241763;22;20916;-79
2023/03/18 12:56:22;;;;;;;41.85;28.20;;;18.60;36.40;;;;;;6239487;22;20369;-80
2023/03/18 12:58:51;;;;;;;30.88;20.27;;;18.60;35.60;;;;;;6241488;22;20377;-80
2023/03/18 13:01:26;;;;;;;29.52;17.30;;;18.60;35.90;;;;;;6239673;22;20368;-80
2023/03/18 13:04:06;;;;;;;24.45;18.95;;;18.80;35.90;;;;;;6239117;22;20405;-82
2023/03/18 13:06:42;;;;;;;24.15;18.90;;;19.00;35.50;;;;;;6239910;23;20373;-78
2023/03/18 13:09:34;;;;;;;43.60;22.92;;;19.10;35.00;;;;;;6239298;22;20699;-79
2023/03/18 13:12:08;;;;;;;28.77;21.00;;;19.20;35.30;;;;;;6240974;22;20443;-81
2023/03/18 13:14:42;;;;;;;22.98;18.02;;;19.20;33.60;;;;;;6241362;23;20373;-80
2023/03/18 13:17:13;;;;;;;23.73;18.58;;;19.10;34.30;;;;;;6241412;22;20380;-79
2023/03/18 13:19:42;;;;;;;23.63;19.27;;;19.20;35.30;;;;;;6241190;23;20377;-80
2023/03/18 13:22:47;;;;;;;26.00;19.05;;;19.40;35.40;;;;;;6240825;22;20423;-79
2023/03/18 13:25:20;;;;;;;41.42;19.60;;;19.30;34.70;;;;;;6240417;22;20373;-78
2023/03/18 13:28:25;;;;;;;22.73;18.57;;;19.40;34.50;;;;;;6241417;23;20372;-78
2023/03/18 13:31:35;;;;;;;27.33;20.85;;;19.20;34.20;;;;;;6188518;22;20372;-77
2023/03/18 13:34:30;;;;;;;26.52;20.60;;;18.90;34.50;;;;;;6066316;23;20910;-76
2023/03/18 13:37:16;;;;;;;25.37;19.40;;;18.70;35.30;;;;;;6240073;22;20381;-79
2023/03/18 13:40:08;;;;;;;26.20;20.05;;;18.50;36.10;;;;;;6234358;22;20506;-78
2023/03/18 13:42:37;;;;;;;26.33;19.43;;;18.60;36.90;;;;;;6240484;23;20876;-76
2023/03/18 13:45:07;;;;;;;27.48;20.33;;;18.50;36.30;;;;;;6239506;22;20365;-78
2023/03/18 13:47:37;;;;;;;26.70;20.20;;;18.40;36.00;;;;;;6240918;23;20373;-76
2023/03/18 13:50:28;;;;;;;27.88;19.75;;;18.30;35.80;;;;;;6239788;22;20365;-76
2023/03/18 13:52:58;;;;;;;23.98;18.40;;;18.30;36.30;;;;;;6220261;22;20434;-76
2023/03/18 13:55:46;;;;;;;23.20;17.67;;;18.10;36.80;;;;;;6240346;23;20381;-76
2023/03/18 13:58:24;;;;;;;23.20;17.35;;;17.90;37.30;;;;;;6240315;22;20381;-76
2023/03/18 14:00:54;;;;;;;26.65;19.33;;;17.80;37.60;;;;;;6239211;22;20373;-78
2023/03/18 14:03:50;;;;;;;25.58;18.95;;;17.70;37.10;;;;;;6240325;23;20672;-77
2023/03/18 14:06:35;;;;;;;27.08;19.67;;;17.70;38.00;;;;;;6239652;22;20387;-77
2023/03/18 14:09:21;;;;;;;28.98;20.05;;;17.70;37.70;;;;;;6241344;22;20427;-76
2023/03/18 14:11:51;;;;;;;26.42;20.25;;;17.60;37.80;;;;;;6240380;23;20369;-77
2023/03/18 14:14:56;;;;;;;27.10;19.13;;;17.50;37.30;;;;;;6239778;23;20373;-78
2023/03/18 14:17:40;;;;;;;27.80;20.55;;;17.40;38.10;;;;;;6239972;22;20956;-81
2023/03/18 14:20:19;;;;;;;26.37;19.07;;;17.30;38.20;;;;;;6239918;22;20383;-82
2023/03/18 14:22:48;;;;;;;23.55;17.88;;;17.20;38.80;;;;;;6238688;23;20451;-80
2023/03/18 14:25:21;;;;;;;25.17;18.67;;;17.30;38.40;;;;;;6238028;22;20748;-80
2023/03/18 14:27:50;;;;;;;26.35;19.52;;;17.50;38.50;;;;;;6242552;22;20380;-80
2023/03/18 14:30:30;;;;;;;24.90;18.70;;;17.70;37.50;;;;;;6240763;22;20396;-82
2023/03/18 14:32:59;;;;;;;29.63;20.08;;;18.00;37.40;;;;;;6241820;23;20377;-84
2023/03/18 14:35:31;;;;;;;24.27;17.55;;;18.20;37.10;;;;;;6240740;22;20423;-83
2023/03/18 14:38:11;;;;;;;28.20;20.20;;;18.20;36.70;;;;;;6241943;23;20380;-82
2023/03/18 14:40:42;;;;;;;24.10;17.95;;;18.40;36.00;;;;;;6242121;22;20353;-82
2023/03/18 14:43:24;;;;;;;25.25;19.27;;;18.50;37.00;;;;;;6241809;23;20357;-81
2023/03/18 14:45:55;;;;;;;27.27;20.77;;;18.70;36.50;;;;;;6238366;23;20357;-82
2023/03/18 14:48:34;;;;;;;26.77;20.50;;;18.70;35.80;;;;;;6233099;23;20373;-81
2023/03/18 14:51:10;;;;;;;23.38;18.77;;;18.40;35.90;;;;;;6236213;22;20362;-77
2023/03/18 14:53:57;;;;;;;25.33;19.37;;;18.20;36.70;;;;;;6236088;22;20370;-77
2023/03/18 14:56:28;;;;;;;24.52;19.10;;;18.20;37.20;;;;;;6239932;23;20834;-77
2023/03/18 14:58:55;;;;;;;23.02;18.08;;;18.20;36.90;;;;;;6241141;22;20381;-77
2023/03/18 15:01:38;;;;;;;23.45;18.90;;;18.30;37.90;;;;;;6240287;23;20423;-79
2023/03/18 15:04:13;;;;;;;22.73;18.55;;;18.40;37.70;;;;;;6240367;22;20373;-77
2023/03/18 15:06:40;;;;;;;24.23;18.83;;;18.50;37.40;;;;;;6240491;23;20364;-77
2023/03/18 15:09:18;;;;;;;25.70;20.92;;;18.60;36.40;;;;;;6238343;22;20444;-77